sensor_id;sensor_type;location;lat;lon;timestamp;P1;durP1;ratioP1;P2;durP2;ratioP2
7573;SDS011;3828;48.922;9.116;2022-09-02T00:00:57;4.83;;;4.43;;
7573;SDS011;3828;48.922;9.116;2022-09-02T00:03:28;4.63;;;4.33;;
7573;SDS011;3828;48.922;9.116;2022-09-02T00:05:57;5.00;;;4.60;;
7573;SDS011;3828;48.922;9.116;2022-09-02T00:08:24;4.57;;;3.97;;
7573;SDS011;3828;48.922;9.116;2022-09-02T00:10:51;4.97;;;4.57;;
7573;SDS011;3828;48.922;9.116;2022-09-02T00:13:18;4.73;;;4.33;;
7573;SDS011;3828;48.922;9.116;2022-09-02T00:15:47;4.87;;;4.47;;
7573;SDS011;3828;48.922;9.116;2022-09-02T00:18:14;5.13;;;4.73;;
7573;SDS011;3828;48.922;9.116;2022-09-02T00:20:44;4.77;;;4.30;;
7573;SDS011;3828;48.922;9.116;2022-09-02T00:23:13;4.60;;;4.30;;
7573;SDS011;3828;48.922;9.116;2022-09-02T00:25:40;4.40;;;4.00;;
7573;SDS011;3828;48.922;9.116;2022-09-02T00:28:10;4.77;;;4.37;;
7573;SDS011;3828;48.922;9.116;2022-09-02T00:30:38;4.80;;;4.50;;
7573;SDS011;3828;48.922;9.116;2022-09-02T00:33:05;4.70;;;4.40;;
7573;SDS011;3828;48.922;9.116;2022-09-02T00:35:33;4.73;;;4.23;;
7573;SDS011;3828;48.922;9.116;2022-09-02T00:38:01;4.13;;;3.83;;
7573;SDS011;3828;48.922;9.116;2022-09-02T00:40:29;6.60;;;4.13;;
7573;SDS011;3828;48.922;9.116;2022-09-02T00:42:56;4.97;;;4.57;;
7573;SDS011;3828;48.922;9.116;2022-09-02T00:45:23;5.13;;;4.63;;
7573;SDS011;3828;48.922;9.116;2022-09-02T00:47:50;5.13;;;4.70;;
7573;SDS011;3828;48.922;9.116;2022-09-02T00:50:18;5.77;;;5.20;;
7573;SDS011;3828;48.922;9.116;2022-09-02T00:52:49;5.07;;;4.57;;
7573;SDS011;3828;48.922;9.116;2022-09-02T00:55:23;4.87;;;4.57;;
7573;SDS011;3828;48.922;9.116;2022-09-02T00:57:53;5.33;;;4.93;;
7573;SDS011;3828;48.922;9.116;2022-09-02T01:00:25;4.60;;;4.30;;
7573;SDS011;3828;48.922;9.116;2022-09-02T01:02:56;4.77;;;4.37;;
7573;SDS011;3828;48.922;9.116;2022-09-02T01:05:27;4.97;;;4.57;;
7573;SDS011;3828;48.922;9.116;2022-09-02T01:07:56;5.30;;;4.90;;
7573;SDS011;3828;48.922;9.116;2022-09-02T01:10:26;5.40;;;5.00;;
7573;SDS011;3828;48.922;9.116;2022-09-02T01:12:54;5.43;;;5.03;;
7573;SDS011;3828;48.922;9.116;2022-09-02T01:15:22;5.53;;;5.13;;
7573;SDS011;3828;48.922;9.116;2022-09-02T01:17:51;5.63;;;5.13;;
7573;SDS011;3828;48.922;9.116;2022-09-02T01:20:19;5.60;;;4.63;;
7573;SDS011;3828;48.922;9.116;2022-09-02T01:22:48;5.43;;;5.03;;
7573;SDS011;3828;48.922;9.116;2022-09-02T01:25:17;4.93;;;4.53;;
7573;SDS011;3828;48.922;9.116;2022-09-02T01:27:46;6.07;;;5.57;;
7573;SDS011;3828;48.922;9.116;2022-09-02T01:30:15;6.17;;;5.20;;
7573;SDS011;3828;48.922;9.116;2022-09-02T01:32:43;5.97;;;5.47;;
7573;SDS011;3828;48.922;9.116;2022-09-02T01:35:11;5.07;;;4.57;;
7573;SDS011;3828;48.922;9.116;2022-09-02T01:37:40;5.07;;;4.70;;
7573;SDS011;3828;48.922;9.116;2022-09-02T01:40:10;5.47;;;4.97;;
7573;SDS011;3828;48.922;9.116;2022-09-02T01:42:39;5.17;;;4.77;;
7573;SDS011;3828;48.922;9.116;2022-09-02T01:45:07;4.80;;;4.50;;
7573;SDS011;3828;48.922;9.116;2022-09-02T01:47:34;5.23;;;4.83;;
7573;SDS011;3828;48.922;9.116;2022-09-02T01:50:02;5.17;;;4.77;;
7573;SDS011;3828;48.922;9.116;2022-09-02T01:52:30;5.47;;;4.97;;
7573;SDS011;3828;48.922;9.116;2022-09-02T01:54:57;4.93;;;4.53;;
7573;SDS011;3828;48.922;9.116;2022-09-02T01:57:25;5.40;;;4.90;;
7573;SDS011;3828;48.922;9.116;2022-09-02T01:59:52;4.37;;;4.07;;
7573;SDS011;3828;48.922;9.116;2022-09-02T02:02:19;4.83;;;4.53;;
7573;SDS011;3828;48.922;9.116;2022-09-02T02:04:47;5.20;;;4.80;;
7573;SDS011;3828;48.922;9.116;2022-09-02T02:07:15;4.93;;;4.60;;
7573;SDS011;3828;48.922;9.116;2022-09-02T02:09:42;4.93;;;4.47;;
7573;SDS011;3828;48.922;9.116;2022-09-02T02:12:09;5.03;;;4.67;;
7573;SDS011;3828;48.922;9.116;2022-09-02T02:14:38;5.30;;;5.00;;
7573;SDS011;3828;48.922;9.116;2022-09-02T02:17:04;4.63;;;4.23;;
7573;SDS011;3828;48.922;9.116;2022-09-02T02:19:31;5.27;;;4.77;;
7573;SDS011;3828;48.922;9.116;2022-09-02T02:22:00;4.87;;;4.40;;
7573;SDS011;3828;48.922;9.116;2022-09-02T02:24:27;4.90;;;4.50;;
7573;SDS011;3828;48.922;9.116;2022-09-02T02:26:54;4.50;;;4.20;;
7573;SDS011;3828;48.922;9.116;2022-09-02T02:29:21;4.50;;;4.10;;
7573;SDS011;3828;48.922;9.116;2022-09-02T02:31:49;4.53;;;4.23;;
7573;SDS011;3828;48.922;9.116;2022-09-02T02:34:16;5.00;;;4.60;;
7573;SDS011;3828;48.922;9.116;2022-09-02T02:36:42;5.00;;;4.70;;
7573;SDS011;3828;48.922;9.116;2022-09-02T02:39:09;4.37;;;4.07;;
7573;SDS011;3828;48.922;9.116;2022-09-02T02:41:37;5.23;;;4.40;;
7573;SDS011;3828;48.922;9.116;2022-09-02T02:44:05;4.60;;;4.27;;
7573;SDS011;3828;48.922;9.116;2022-09-02T02:46:32;4.90;;;4.50;;
7573;SDS011;3828;48.922;9.116;2022-09-02T02:49:01;4.90;;;4.50;;
7573;SDS011;3828;48.922;9.116;2022-09-02T02:51:32;5.27;;;4.77;;
7573;SDS011;3828;48.922;9.116;2022-09-02T02:53:59;4.77;;;4.40;;
7573;SDS011;3828;48.922;9.116;2022-09-02T02:56:25;4.87;;;4.50;;
7573;SDS011;3828;48.922;9.116;2022-09-02T02:58:53;5.03;;;4.60;;
7573;SDS011;3828;48.922;9.116;2022-09-02T03:01:20;5.03;;;4.53;;
7573;SDS011;3828;48.922;9.116;2022-09-02T03:03:47;5.23;;;4.80;;
7573;SDS011;3828;48.922;9.116;2022-09-02T03:06:17;4.90;;;4.50;;
7573;SDS011;3828;48.922;9.116;2022-09-02T03:08:44;5.63;;;5.10;;
7573;SDS011;3828;48.922;9.116;2022-09-02T03:11:12;5.07;;;4.67;;
7573;SDS011;3828;48.922;9.116;2022-09-02T03:13:39;5.47;;;5.03;;
7573;SDS011;3828;48.922;9.116;2022-09-02T03:16:06;5.63;;;5.23;;
7573;SDS011;3828;48.922;9.116;2022-09-02T03:18:33;5.80;;;5.33;;
7573;SDS011;3828;48.922;9.116;2022-09-02T03:21:00;7.33;;;6.37;;
7573;SDS011;3828;48.922;9.116;2022-09-02T03:23:56;5.90;;;5.30;;
7573;SDS011;3828;48.922;9.116;2022-09-02T03:26:25;5.67;;;5.17;;
7573;SDS011;3828;48.922;9.116;2022-09-02T03:29:09;4.80;;;4.50;;
7573;SDS011;3828;48.922;9.116;2022-09-02T03:31:52;5.70;;;5.30;;
7573;SDS011;3828;48.922;9.116;2022-09-02T03:34:19;4.93;;;4.63;;
7573;SDS011;3828;48.922;9.116;2022-09-02T03:36:45;4.77;;;4.40;;
7573;SDS011;3828;48.922;9.116;2022-09-02T03:39:14;5.47;;;5.07;;
7573;SDS011;3828;48.922;9.116;2022-09-02T03:41:40;5.27;;;4.90;;
7573;SDS011;3828;48.922;9.116;2022-09-02T03:44:07;5.47;;;4.97;;
7573;SDS011;3828;48.922;9.116;2022-09-02T03:46:35;5.30;;;4.80;;
7573;SDS011;3828;48.922;9.116;2022-09-02T03:49:02;5.63;;;5.13;;
7573;SDS011;3828;48.922;9.116;2022-09-02T03:51:29;4.93;;;4.53;;
7573;SDS011;3828;48.922;9.116;2022-09-02T03:53:56;5.57;;;5.17;;
7573;SDS011;3828;48.922;9.116;2022-09-02T03:56:24;5.00;;;4.60;;
7573;SDS011;3828;48.922;9.116;2022-09-02T03:58:51;5.10;;;4.53;;
7573;SDS011;3828;48.922;9.116;2022-09-02T04:01:20;4.83;;;4.53;;
7573;SDS011;3828;48.922;9.116;2022-09-02T04:03:48;6.80;;;4.83;;
7573;SDS011;3828;48.922;9.116;2022-09-02T04:06:16;4.73;;;4.33;;
7573;SDS011;3828;48.922;9.116;2022-09-02T04:08:45;5.10;;;4.70;;
7573;SDS011;3828;48.922;9.116;2022-09-02T04:11:14;4.83;;;4.37;;
7573;SDS011;3828;48.922;9.116;2022-09-02T04:13:43;5.20;;;4.73;;
7573;SDS011;3828;48.922;9.116;2022-09-02T04:16:12;5.10;;;4.70;;
7573;SDS011;3828;48.922;9.116;2022-09-02T04:18:41;5.00;;;4.60;;
7573;SDS011;3828;48.922;9.116;2022-09-02T04:21:08;5.23;;;4.77;;
7573;SDS011;3828;48.922;9.116;2022-09-02T04:23:35;4.93;;;4.43;;
7573;SDS011;3828;48.922;9.116;2022-09-02T04:26:03;5.67;;;5.17;;
7573;SDS011;3828;48.922;9.116;2022-09-02T04:28:30;5.97;;;5.33;;
7573;SDS011;3828;48.922;9.116;2022-09-02T04:30:59;4.77;;;4.37;;
7573;SDS011;3828;48.922;9.116;2022-09-02T04:33:29;4.77;;;4.37;;
7573;SDS011;3828;48.922;9.116;2022-09-02T04:35:55;4.90;;;4.50;;
7573;SDS011;3828;48.922;9.116;2022-09-02T04:38:22;4.90;;;4.60;;
7573;SDS011;3828;48.922;9.116;2022-09-02T04:40:49;5.40;;;5.00;;
7573;SDS011;3828;48.922;9.116;2022-09-02T04:43:16;5.27;;;4.77;;
7573;SDS011;3828;48.922;9.116;2022-09-02T04:45:43;4.77;;;4.37;;
7573;SDS011;3828;48.922;9.116;2022-09-02T04:48:13;5.00;;;4.60;;
7573;SDS011;3828;48.922;9.116;2022-09-02T04:50:40;6.07;;;5.47;;
7573;SDS011;3828;48.922;9.116;2022-09-02T04:53:08;4.83;;;4.10;;
7573;SDS011;3828;48.922;9.116;2022-09-02T04:55:37;5.20;;;4.80;;
7573;SDS011;3828;48.922;9.116;2022-09-02T04:58:06;5.33;;;4.67;;
7573;SDS011;3828;48.922;9.116;2022-09-02T05:00:33;4.70;;;4.40;;
7573;SDS011;3828;48.922;9.116;2022-09-02T05:03:04;5.37;;;4.63;;
7573;SDS011;3828;48.922;9.116;2022-09-02T05:05:32;4.77;;;4.27;;
7573;SDS011;3828;48.922;9.116;2022-09-02T05:07:59;4.63;;;4.33;;
7573;SDS011;3828;48.922;9.116;2022-09-02T05:10:28;4.40;;;4.10;;
7573;SDS011;3828;48.922;9.116;2022-09-02T05:12:56;5.07;;;4.67;;
7573;SDS011;3828;48.922;9.116;2022-09-02T05:15:24;5.30;;;4.90;;
7573;SDS011;3828;48.922;9.116;2022-09-02T05:17:51;4.70;;;4.40;;
7573;SDS011;3828;48.922;9.116;2022-09-02T05:20:18;4.87;;;4.47;;
7573;SDS011;3828;48.922;9.116;2022-09-02T05:22:46;5.73;;;5.27;;
7573;SDS011;3828;48.922;9.116;2022-09-02T05:25:14;5.23;;;4.73;;
7573;SDS011;3828;48.922;9.116;2022-09-02T05:27:40;5.93;;;5.07;;
7573;SDS011;3828;48.922;9.116;2022-09-02T05:30:07;5.60;;;5.10;;
7573;SDS011;3828;48.922;9.116;2022-09-02T05:32:35;5.90;;;5.40;;
7573;SDS011;3828;48.922;9.116;2022-09-02T05:35:01;5.80;;;5.20;;
7573;SDS011;3828;48.922;9.116;2022-09-02T05:37:28;5.33;;;4.83;;
7573;SDS011;3828;48.922;9.116;2022-09-02T05:39:56;5.17;;;4.70;;
7573;SDS011;3828;48.922;9.116;2022-09-02T05:42:25;5.50;;;5.00;;
7573;SDS011;3828;48.922;9.116;2022-09-02T05:44:53;5.63;;;5.13;;
7573;SDS011;3828;48.922;9.116;2022-09-02T05:47:20;5.30;;;4.80;;
7573;SDS011;3828;48.922;9.116;2022-09-02T05:49:48;5.33;;;4.90;;
7573;SDS011;3828;48.922;9.116;2022-09-02T05:52:15;5.27;;;4.77;;
7573;SDS011;3828;48.922;9.116;2022-09-02T05:54:42;5.73;;;5.03;;
7573;SDS011;3828;48.922;9.116;2022-09-02T05:57:11;5.40;;;4.90;;
7573;SDS011;3828;48.922;9.116;2022-09-02T05:59:40;5.00;;;4.60;;
7573;SDS011;3828;48.922;9.116;2022-09-02T06:02:08;5.80;;;4.83;;
7573;SDS011;3828;48.922;9.116;2022-09-02T06:04:36;6.07;;;5.60;;
7573;SDS011;3828;48.922;9.116;2022-09-02T06:07:03;7.53;;;5.30;;
7573;SDS011;3828;48.922;9.116;2022-09-02T06:09:30;5.47;;;5.07;;
7573;SDS011;3828;48.922;9.116;2022-09-02T06:11:57;7.57;;;5.27;;
7573;SDS011;3828;48.922;9.116;2022-09-02T06:14:25;5.73;;;5.07;;
7573;SDS011;3828;48.922;9.116;2022-09-02T06:16:52;5.13;;;4.73;;
7573;SDS011;3828;48.922;9.116;2022-09-02T06:19:21;5.20;;;4.70;;
7573;SDS011;3828;48.922;9.116;2022-09-02T06:21:49;5.43;;;4.73;;
7573;SDS011;3828;48.922;9.116;2022-09-02T06:24:17;5.40;;;5.00;;
7573;SDS011;3828;48.922;9.116;2022-09-02T06:26:43;5.17;;;4.77;;
7573;SDS011;3828;48.922;9.116;2022-09-02T06:29:10;7.77;;;4.67;;
7573;SDS011;3828;48.922;9.116;2022-09-02T06:31:40;4.10;;;3.80;;
7573;SDS011;3828;48.922;9.116;2022-09-02T06:34:08;5.67;;;4.70;;
7573;SDS011;3828;48.922;9.116;2022-09-02T06:36:39;4.90;;;4.50;;
7573;SDS011;3828;48.922;9.116;2022-09-02T06:39:09;3.20;;;3.00;;
7573;SDS011;3828;48.922;9.116;2022-09-02T06:41:37;3.13;;;2.83;;
7573;SDS011;3828;48.922;9.116;2022-09-02T06:44:06;3.03;;;2.60;;
7573;SDS011;3828;48.922;9.116;2022-09-02T06:46:34;3.10;;;2.90;;
7573;SDS011;3828;48.922;9.116;2022-09-02T06:49:05;3.33;;;3.13;;
7573;SDS011;3828;48.922;9.116;2022-09-02T06:51:34;2.73;;;2.53;;
7573;SDS011;3828;48.922;9.116;2022-09-02T06:54:03;2.50;;;2.40;;
7573;SDS011;3828;48.922;9.116;2022-09-02T06:56:31;3.07;;;2.87;;
7573;SDS011;3828;48.922;9.116;2022-09-02T06:58:59;4.03;;;2.70;;
7573;SDS011;3828;48.922;9.116;2022-09-02T07:01:27;3.27;;;2.90;;
7573;SDS011;3828;48.922;9.116;2022-09-02T07:03:56;2.70;;;2.50;;
7573;SDS011;3828;48.922;9.116;2022-09-02T07:06:42;2.70;;;2.50;;
7573;SDS011;3828;48.922;9.116;2022-09-02T07:09:12;2.80;;;2.60;;
7573;SDS011;3828;48.922;9.116;2022-09-02T07:11:40;2.93;;;2.40;;
7573;SDS011;3828;48.922;9.116;2022-09-02T07:14:07;2.90;;;2.70;;
7573;SDS011;3828;48.922;9.116;2022-09-02T07:16:34;3.10;;;2.80;;
7573;SDS011;3828;48.922;9.116;2022-09-02T07:19:03;3.30;;;2.40;;
7573;SDS011;3828;48.922;9.116;2022-09-02T07:21:30;2.40;;;2.20;;
7573;SDS011;3828;48.922;9.116;2022-09-02T07:23:59;2.40;;;2.20;;
7573;SDS011;3828;48.922;9.116;2022-09-02T07:26:26;3.63;;;2.20;;
7573;SDS011;3828;48.922;9.116;2022-09-02T07:28:54;3.03;;;2.20;;
7573;SDS011;3828;48.922;9.116;2022-09-02T07:31:22;2.60;;;2.50;;
7573;SDS011;3828;48.922;9.116;2022-09-02T07:33:51;2.37;;;2.13;;
7573;SDS011;3828;48.922;9.116;2022-09-02T07:36:22;2.50;;;2.27;;
7573;SDS011;3828;48.922;9.116;2022-09-02T07:38:50;2.70;;;2.10;;
7573;SDS011;3828;48.922;9.116;2022-09-02T07:41:19;2.93;;;2.03;;
7573;SDS011;3828;48.922;9.116;2022-09-02T07:43:47;2.47;;;2.27;;
7573;SDS011;3828;48.922;9.116;2022-09-02T07:46:15;3.00;;;2.20;;
7573;SDS011;3828;48.922;9.116;2022-09-02T07:48:41;2.30;;;2.10;;
7573;SDS011;3828;48.922;9.116;2022-09-02T07:51:09;2.60;;;2.40;;
7573;SDS011;3828;48.922;9.116;2022-09-02T07:53:36;2.30;;;1.80;;
7573;SDS011;3828;48.922;9.116;2022-09-02T07:56:04;2.80;;;2.30;;
7573;SDS011;3828;48.922;9.116;2022-09-02T07:58:32;2.60;;;1.93;;
7573;SDS011;3828;48.922;9.116;2022-09-02T08:00:59;2.63;;;2.00;;
7573;SDS011;3828;48.922;9.116;2022-09-02T08:03:26;2.13;;;1.93;;
7573;SDS011;3828;48.922;9.116;2022-09-02T08:05:54;2.70;;;2.07;;
7573;SDS011;3828;48.922;9.116;2022-09-02T08:08:22;2.00;;;1.90;;
7573;SDS011;3828;48.922;9.116;2022-09-02T08:10:50;4.07;;;2.13;;
7573;SDS011;3828;48.922;9.116;2022-09-02T08:13:18;2.67;;;1.97;;
7573;SDS011;3828;48.922;9.116;2022-09-02T08:15:47;3.60;;;1.60;;
7573;SDS011;3828;48.922;9.116;2022-09-02T08:18:14;1.87;;;1.77;;
7573;SDS011;3828;48.922;9.116;2022-09-02T08:20:41;2.00;;;1.80;;
7573;SDS011;3828;48.922;9.116;2022-09-02T08:23:07;2.27;;;1.67;;
7573;SDS011;3828;48.922;9.116;2022-09-02T08:25:36;2.07;;;1.60;;
7573;SDS011;3828;48.922;9.116;2022-09-02T08:28:02;2.20;;;2.00;;
7573;SDS011;3828;48.922;9.116;2022-09-02T08:30:29;1.93;;;1.50;;
7573;SDS011;3828;48.922;9.116;2022-09-02T08:32:57;5.33;;;1.93;;
7573;SDS011;3828;48.922;9.116;2022-09-02T08:35:25;1.70;;;1.60;;
7573;SDS011;3828;48.922;9.116;2022-09-02T08:37:51;2.87;;;1.77;;
7573;SDS011;3828;48.922;9.116;2022-09-02T08:41:08;1.70;;;1.60;;
7573;SDS011;3828;48.922;9.116;2022-09-02T08:44:01;2.53;;;1.80;;
7573;SDS011;3828;48.922;9.116;2022-09-02T08:46:31;2.83;;;1.33;;
7573;SDS011;3828;48.922;9.116;2022-09-02T08:49:02;1.50;;;1.40;;
7573;SDS011;3828;48.922;9.116;2022-09-02T08:51:34;1.77;;;1.40;;
7573;SDS011;3828;48.922;9.116;2022-09-02T08:54:07;1.60;;;1.40;;
7573;SDS011;3828;48.922;9.116;2022-09-02T08:56:36;2.83;;;1.67;;
7573;SDS011;3828;48.922;9.116;2022-09-02T08:59:03;3.90;;;1.40;;
7573;SDS011;3828;48.922;9.116;2022-09-02T09:01:33;1.93;;;1.67;;
7573;SDS011;3828;48.922;9.116;2022-09-02T09:04:15;2.93;;;1.47;;
7573;SDS011;3828;48.922;9.116;2022-09-02T09:06:58;2.10;;;1.63;;
7573;SDS011;3828;48.922;9.116;2022-09-02T09:09:40;1.70;;;1.30;;
7573;SDS011;3828;48.922;9.116;2022-09-02T09:12:17;1.37;;;1.30;;
7573;SDS011;3828;48.922;9.116;2022-09-02T09:14:53;2.70;;;1.33;;
7573;SDS011;3828;48.922;9.116;2022-09-02T09:17:29;2.20;;;1.30;;
7573;SDS011;3828;48.922;9.116;2022-09-02T09:20:02;3.27;;;1.37;;
7573;SDS011;3828;48.922;9.116;2022-09-02T09:22:34;2.17;;;1.10;;
7573;SDS011;3828;48.922;9.116;2022-09-02T09:25:04;1.73;;;1.37;;
7573;SDS011;3828;48.922;9.116;2022-09-02T09:27:35;2.83;;;1.23;;
7573;SDS011;3828;48.922;9.116;2022-09-02T09:30:03;11.63;;;1.60;;
7573;SDS011;3828;48.922;9.116;2022-09-02T09:32:33;2.30;;;1.33;;
7573;SDS011;3828;48.922;9.116;2022-09-02T09:35:05;1.40;;;1.00;;
7573;SDS011;3828;48.922;9.116;2022-09-02T09:37:35;1.37;;;1.27;;
7573;SDS011;3828;48.922;9.116;2022-09-02T09:40:20;1.20;;;1.10;;
7573;SDS011;3828;48.922;9.116;2022-09-02T09:42:57;1.17;;;1.00;;
7573;SDS011;3828;48.922;9.116;2022-09-02T09:45:38;1.87;;;1.10;;
7573;SDS011;3828;48.922;9.116;2022-09-02T09:48:10;1.13;;;0.90;;
7573;SDS011;3828;48.922;9.116;2022-09-02T09:50:45;0.87;;;0.87;;
7573;SDS011;3828;48.922;9.116;2022-09-02T09:53:14;1.00;;;0.90;;
7573;SDS011;3828;48.922;9.116;2022-09-02T09:55:50;1.90;;;1.00;;
7573;SDS011;3828;48.922;9.116;2022-09-02T09:58:18;1.17;;;1.10;;
7573;SDS011;3828;48.922;9.116;2022-09-02T10:00:47;1.50;;;1.10;;
7573;SDS011;3828;48.922;9.116;2022-09-02T10:03:20;1.63;;;0.97;;
7573;SDS011;3828;48.922;9.116;2022-09-02T10:05:51;1.40;;;1.20;;
7573;SDS011;3828;48.922;9.116;2022-09-02T10:08:20;0.90;;;0.80;;
7573;SDS011;3828;48.922;9.116;2022-09-02T10:10:55;2.10;;;1.00;;
7573;SDS011;3828;48.922;9.116;2022-09-02T10:13:24;1.77;;;0.77;;
7573;SDS011;3828;48.922;9.116;2022-09-02T10:15:58;1.53;;;1.00;;
7573;SDS011;3828;48.922;9.116;2022-09-02T10:18:37;1.40;;;1.10;;
7573;SDS011;3828;48.922;9.116;2022-09-02T10:21:10;1.23;;;1.13;;
7573;SDS011;3828;48.922;9.116;2022-09-02T10:23:46;1.30;;;1.20;;
7573;SDS011;3828;48.922;9.116;2022-09-02T10:26:22;1.20;;;1.00;;
7573;SDS011;3828;48.922;9.116;2022-09-02T10:31:54;0.80;;;0.80;;
7573;SDS011;3828;48.922;9.116;2022-09-02T10:34:36;2.63;;;0.60;;
7573;SDS011;3828;48.922;9.116;2022-09-02T10:37:13;2.10;;;0.90;;
7573;SDS011;3828;48.922;9.116;2022-09-02T10:40:01;1.93;;;1.10;;
7573;SDS011;3828;48.922;9.116;2022-09-02T10:42:37;2.50;;;0.83;;
7573;SDS011;3828;48.922;9.116;2022-09-02T10:45:13;0.60;;;0.60;;
7573;SDS011;3828;48.922;9.116;2022-09-02T10:47:46;1.27;;;1.00;;
7573;SDS011;3828;48.922;9.116;2022-09-02T10:50:25;1.10;;;1.00;;
7573;SDS011;3828;48.922;9.116;2022-09-02T10:53:07;1.40;;;0.90;;
7573;SDS011;3828;48.922;9.116;2022-09-02T10:55:47;0.93;;;0.80;;
7573;SDS011;3828;48.922;9.116;2022-09-02T10:58:22;0.90;;;0.90;;
7573;SDS011;3828;48.922;9.116;2022-09-02T11:00:55;1.90;;;0.97;;
7573;SDS011;3828;48.922;9.116;2022-09-02T11:03:23;2.00;;;0.87;;
7573;SDS011;3828;48.922;9.116;2022-09-02T11:05:55;1.10;;;0.97;;
7573;SDS011;3828;48.922;9.116;2022-09-02T11:08:33;2.53;;;1.07;;
7573;SDS011;3828;48.922;9.116;2022-09-02T11:11:05;3.73;;;1.13;;
7573;SDS011;3828;48.922;9.116;2022-09-02T11:13:38;0.80;;;0.80;;
7573;SDS011;3828;48.922;9.116;2022-09-02T11:16:17;1.07;;;0.80;;
7573;SDS011;3828;48.922;9.116;2022-09-02T11:18:50;1.40;;;1.20;;
7573;SDS011;3828;48.922;9.116;2022-09-02T11:21:26;0.60;;;0.60;;
7573;SDS011;3828;48.922;9.116;2022-09-02T11:24:03;1.30;;;0.90;;
7573;SDS011;3828;48.922;9.116;2022-09-02T11:26:35;0.70;;;0.70;;
7573;SDS011;3828;48.922;9.116;2022-09-02T11:29:06;1.27;;;0.90;;
7573;SDS011;3828;48.922;9.116;2022-09-02T11:31:37;1.47;;;0.80;;
7573;SDS011;3828;48.922;9.116;2022-09-02T11:34:13;0.83;;;0.73;;
7573;SDS011;3828;48.922;9.116;2022-09-02T11:36:45;2.90;;;0.93;;
7573;SDS011;3828;48.922;9.116;2022-09-02T11:39:16;1.70;;;0.90;;
7573;SDS011;3828;48.922;9.116;2022-09-02T11:41:50;1.00;;;0.87;;
7573;SDS011;3828;48.922;9.116;2022-09-02T11:47:33;1.30;;;0.83;;
7573;SDS011;3828;48.922;9.116;2022-09-02T11:50:18;6.87;;;1.20;;
7573;SDS011;3828;48.922;9.116;2022-09-02T11:52:58;2.10;;;0.80;;
7573;SDS011;3828;48.922;9.116;2022-09-02T11:55:37;0.97;;;0.70;;
7573;SDS011;3828;48.922;9.116;2022-09-02T11:58:08;0.73;;;0.73;;
7573;SDS011;3828;48.922;9.116;2022-09-02T12:00:36;1.70;;;0.80;;
7573;SDS011;3828;48.922;9.116;2022-09-02T12:03:41;1.80;;;0.90;;
7573;SDS011;3828;48.922;9.116;2022-09-02T12:06:12;3.73;;;0.87;;
7573;SDS011;3828;48.922;9.116;2022-09-02T12:15:02;0.80;;;0.77;;
7573;SDS011;3828;48.922;9.116;2022-09-02T12:21:03;1.83;;;0.87;;
7573;SDS011;3828;48.922;9.116;2022-09-02T12:29:54;0.73;;;0.73;;
7573;SDS011;3828;48.922;9.116;2022-09-02T12:38:34;3.83;;;1.10;;
7573;SDS011;3828;48.922;9.116;2022-09-02T12:41:22;1.40;;;0.93;;
7573;SDS011;3828;48.922;9.116;2022-09-02T12:43:56;0.73;;;0.70;;
7573;SDS011;3828;48.922;9.116;2022-09-02T12:46:34;1.03;;;0.93;;
7573;SDS011;3828;48.922;9.116;2022-09-02T12:49:27;0.70;;;0.70;;
7573;SDS011;3828;48.922;9.116;2022-09-02T12:52:06;1.75;;;0.52;;
7573;SDS011;3828;48.922;9.116;2022-09-02T12:54:39;1.13;;;0.77;;
7573;SDS011;3828;48.922;9.116;2022-09-02T12:57:11;1.27;;;0.70;;
7573;SDS011;3828;48.922;9.116;2022-09-02T12:59:42;1.00;;;1.00;;
7573;SDS011;3828;48.922;9.116;2022-09-02T13:02:17;0.70;;;0.70;;
7573;SDS011;3828;48.922;9.116;2022-09-02T13:04:57;0.77;;;0.77;;
7573;SDS011;3828;48.922;9.116;2022-09-02T13:07:44;0.70;;;0.70;;
7573;SDS011;3828;48.922;9.116;2022-09-02T13:10:45;1.20;;;0.70;;
7573;SDS011;3828;48.922;9.116;2022-09-02T13:16:52;0.80;;;0.73;;
7573;SDS011;3828;48.922;9.116;2022-09-02T13:19:40;2.90;;;0.90;;
7573;SDS011;3828;48.922;9.116;2022-09-02T13:22:23;0.90;;;0.90;;
7573;SDS011;3828;48.922;9.116;2022-09-02T13:25:24;3.63;;;1.25;;
7573;SDS011;3828;48.922;9.116;2022-09-02T13:31:00;0.77;;;0.77;;
7573;SDS011;3828;48.922;9.116;2022-09-02T13:33:37;1.97;;;0.87;;
7573;SDS011;3828;48.922;9.116;2022-09-02T13:36:05;1.50;;;0.80;;
7573;SDS011;3828;48.922;9.116;2022-09-02T13:38:33;0.80;;;0.80;;
7573;SDS011;3828;48.922;9.116;2022-09-02T13:41:00;1.43;;;0.60;;
7573;SDS011;3828;48.922;9.116;2022-09-02T13:43:27;1.17;;;0.77;;
7573;SDS011;3828;48.922;9.116;2022-09-02T13:46:00;0.80;;;0.80;;
7573;SDS011;3828;48.922;9.116;2022-09-02T13:48:28;0.87;;;0.77;;
7573;SDS011;3828;48.922;9.116;2022-09-02T13:51:01;0.87;;;0.80;;
7573;SDS011;3828;48.922;9.116;2022-09-02T13:53:36;2.33;;;0.70;;
7573;SDS011;3828;48.922;9.116;2022-09-02T13:56:05;1.57;;;0.90;;
7573;SDS011;3828;48.922;9.116;2022-09-02T13:58:35;0.50;;;0.50;;
7573;SDS011;3828;48.922;9.116;2022-09-02T14:01:22;0.70;;;0.57;;
7573;SDS011;3828;48.922;9.116;2022-09-02T14:03:52;1.00;;;0.67;;
7573;SDS011;3828;48.922;9.116;2022-09-02T14:06:23;1.13;;;0.60;;
7573;SDS011;3828;48.922;9.116;2022-09-02T14:08:54;0.83;;;0.83;;
7573;SDS011;3828;48.922;9.116;2022-09-02T14:11:23;1.53;;;0.97;;
7573;SDS011;3828;48.922;9.116;2022-09-02T14:13:51;1.70;;;0.77;;
7573;SDS011;3828;48.922;9.116;2022-09-02T14:16:23;1.23;;;1.13;;
7573;SDS011;3828;48.922;9.116;2022-09-02T14:19:02;1.80;;;0.90;;
7573;SDS011;3828;48.922;9.116;2022-09-02T14:21:31;2.47;;;0.73;;
7573;SDS011;3828;48.922;9.116;2022-09-02T14:23:59;0.87;;;0.80;;
7573;SDS011;3828;48.922;9.116;2022-09-02T14:26:30;1.50;;;1.00;;
7573;SDS011;3828;48.922;9.116;2022-09-02T14:29:02;0.87;;;0.80;;
7573;SDS011;3828;48.922;9.116;2022-09-02T14:31:31;1.90;;;0.70;;
7573;SDS011;3828;48.922;9.116;2022-09-02T14:33:58;1.20;;;0.93;;
7573;SDS011;3828;48.922;9.116;2022-09-02T14:36:32;0.90;;;0.83;;
7573;SDS011;3828;48.922;9.116;2022-09-02T14:39:08;2.50;;;0.70;;
7573;SDS011;3828;48.922;9.116;2022-09-02T14:41:40;0.70;;;0.70;;
7573;SDS011;3828;48.922;9.116;2022-09-02T14:44:11;1.90;;;0.80;;
7573;SDS011;3828;48.922;9.116;2022-09-02T14:46:43;2.30;;;0.93;;
7573;SDS011;3828;48.922;9.116;2022-09-02T14:49:16;1.40;;;1.00;;
7573;SDS011;3828;48.922;9.116;2022-09-02T14:51:48;0.80;;;0.80;;
7573;SDS011;3828;48.922;9.116;2022-09-02T14:54:33;2.03;;;1.20;;
7573;SDS011;3828;48.922;9.116;2022-09-02T14:57:04;3.43;;;1.00;;
7573;SDS011;3828;48.922;9.116;2022-09-02T14:59:45;0.93;;;0.93;;
7573;SDS011;3828;48.922;9.116;2022-09-02T15:02:28;3.10;;;0.80;;
7573;SDS011;3828;48.922;9.116;2022-09-02T15:04:58;1.67;;;1.10;;
7573;SDS011;3828;48.922;9.116;2022-09-02T15:07:27;1.17;;;0.60;;
7573;SDS011;3828;48.922;9.116;2022-09-02T15:09:53;2.00;;;0.80;;
7573;SDS011;3828;48.922;9.116;2022-09-02T15:12:21;2.50;;;0.80;;
7573;SDS011;3828;48.922;9.116;2022-09-02T15:14:49;1.83;;;0.90;;
7573;SDS011;3828;48.922;9.116;2022-09-02T15:17:16;1.53;;;1.00;;
7573;SDS011;3828;48.922;9.116;2022-09-02T15:19:43;1.70;;;1.00;;
7573;SDS011;3828;48.922;9.116;2022-09-02T15:22:10;1.90;;;1.03;;
7573;SDS011;3828;48.922;9.116;2022-09-02T15:24:38;0.77;;;0.77;;
7573;SDS011;3828;48.922;9.116;2022-09-02T15:27:07;0.67;;;0.67;;
7573;SDS011;3828;48.922;9.116;2022-09-02T15:29:34;3.37;;;0.93;;
7573;SDS011;3828;48.922;9.116;2022-09-02T15:32:01;2.20;;;0.90;;
7573;SDS011;3828;48.922;9.116;2022-09-02T15:34:29;2.63;;;0.90;;
7573;SDS011;3828;48.922;9.116;2022-09-02T15:36:56;1.13;;;1.00;;
7573;SDS011;3828;48.922;9.116;2022-09-02T15:39:23;1.77;;;0.90;;
7573;SDS011;3828;48.922;9.116;2022-09-02T15:41:52;1.13;;;0.93;;
7573;SDS011;3828;48.922;9.116;2022-09-02T15:44:19;2.63;;;0.97;;
7573;SDS011;3828;48.922;9.116;2022-09-02T15:46:49;1.70;;;1.03;;
7573;SDS011;3828;48.922;9.116;2022-09-02T15:49:17;0.83;;;0.70;;
7573;SDS011;3828;48.922;9.116;2022-09-02T15:51:44;1.10;;;1.00;;
7573;SDS011;3828;48.922;9.116;2022-09-02T15:54:13;1.07;;;1.00;;
7573;SDS011;3828;48.922;9.116;2022-09-02T15:56:43;1.70;;;0.90;;
7573;SDS011;3828;48.922;9.116;2022-09-02T15:59:13;1.47;;;1.03;;
7573;SDS011;3828;48.922;9.116;2022-09-02T16:01:42;1.10;;;1.00;;
7573;SDS011;3828;48.922;9.116;2022-09-02T16:04:10;2.47;;;1.20;;
7573;SDS011;3828;48.922;9.116;2022-09-02T16:06:39;0.90;;;0.90;;
7573;SDS011;3828;48.922;9.116;2022-09-02T16:09:08;1.20;;;1.17;;
7573;SDS011;3828;48.922;9.116;2022-09-02T16:11:36;3.60;;;1.33;;